EZY34WA EGGP-EGJJ
Flight info
| Callsign | EZY34WA |
|---|---|
| Flight time | 0h 59m |
| Altitude | 34000 |
| Route | NANTI L8 STAFA P18 TELBA L151 KIDLI UN859 CPT Y321 PEPIS Q41 SAM N63 LELNA |
| Aircraft | A320/M-SDE3FGHIRWY/LB1 |
Departure
| Time | 2026-05-05 15:33 |
|---|---|
| Airport | Liverpool John Lennon Airport (EGGP) |
Arrival
| Time | 2026-05-05 16:32 |
|---|---|
| Airport | Jersey Airport (EGJJ) |
| Time | Latitude | Longitude | Altitude | Speed | Heading |
|---|---|---|---|---|---|
| 2026-05-05 15:12 | 53.33665 | -2.85440 | 97 ft | 0 kts | 356° |
| 2026-05-05 15:25 | 53.33652 | -2.85438 | 96 ft | 2 kts | 356° |
| 2026-05-05 15:25 | 53.33636 | -2.85443 | 93 ft | 2 kts | 28° |
| 2026-05-05 15:25 | 53.33621 | -2.85456 | 95 ft | 2 kts | 30° |
| 2026-05-05 15:26 | 53.33611 | -2.85476 | 92 ft | 2 kts | 90° |
| 2026-05-05 15:26 | 53.33611 | -2.85505 | 93 ft | 2 kts | 90° |
| 2026-05-05 15:26 | 53.33611 | -2.85533 | 92 ft | 2 kts | 71° |
| 2026-05-05 15:26 | 53.33603 | -2.85555 | 93 ft | 2 kts | 77° |
| 2026-05-05 15:27 | 53.33602 | -2.85584 | 93 ft | 2 kts | 95° |
| 2026-05-05 15:27 | 53.33606 | -2.85611 | 93 ft | 2 kts | 98° |
| 2026-05-05 15:27 | 53.33606 | -2.85624 | 93 ft | 0 kts | 84° |
| 2026-05-05 15:28 | 53.33607 | -2.85622 | 93 ft | 1 kts | 84° |
| 2026-05-05 15:28 | 53.33610 | -2.85551 | 92 ft | 11 kts | 86° |
| 2026-05-05 15:28 | 53.33555 | -2.85506 | 94 ft | 10 kts | 174° |
| 2026-05-05 15:29 | 53.33516 | -2.85480 | 95 ft | 9 kts | 127° |
| 2026-05-05 15:29 | 53.33515 | -2.85353 | 94 ft | 9 kts | 85° |
| 2026-05-05 15:29 | 53.33518 | -2.85248 | 94 ft | 17 kts | 88° |
| 2026-05-05 15:29 | 53.33530 | -2.84982 | 94 ft | 16 kts | 85° |
| 2026-05-05 15:30 | 53.33538 | -2.84799 | 98 ft | 15 kts | 86° |
| 2026-05-05 15:30 | 53.33543 | -2.84684 | 94 ft | 14 kts | 86° |
| 2026-05-05 15:30 | 53.33550 | -2.84527 | 94 ft | 13 kts | 86° |
| 2026-05-05 15:30 | 53.33557 | -2.84367 | 96 ft | 19 kts | 85° |
| 2026-05-05 15:31 | 53.33570 | -2.84095 | 95 ft | 25 kts | 85° |
| 2026-05-05 15:31 | 53.33584 | -2.83821 | 96 ft | 23 kts | 85° |
| 2026-05-05 15:31 | 53.33594 | -2.83569 | 96 ft | 21 kts | 86° |
| 2026-05-05 15:31 | 53.33586 | -2.83348 | 95 ft | 18 kts | 122° |
| 2026-05-05 15:32 | 53.33478 | -2.83296 | 94 ft | 15 kts | 177° |
| 2026-05-05 15:32 | 53.33433 | -2.83407 | 94 ft | 15 kts | 267° |
| 2026-05-05 15:32 | 53.33413 | -2.83906 | 96 ft | 79 kts | 265° |
| 2026-05-05 15:32 | 53.33354 | -2.85164 | 98 ft | 136 kts | 264° |
| 2026-05-05 15:33 | 53.33274 | -2.86755 | 713 ft | 132 kts | 268° |
| 2026-05-05 15:33 | 53.33188 | -2.88358 | 1298 ft | 145 kts | 269° |
| 2026-05-05 15:33 | 53.33095 | -2.90101 | 1629 ft | 159 kts | 271° |
| 2026-05-05 15:33 | 53.32898 | -2.92114 | 1656 ft | 196 kts | 252° |
| 2026-05-05 15:34 | 53.32062 | -2.94125 | 1923 ft | 231 kts | 224° |
| 2026-05-05 15:34 | 53.30507 | -2.95330 | 2358 ft | 261 kts | 187° |
| 2026-05-05 15:34 | 53.28701 | -2.94806 | 3085 ft | 270 kts | 150° |
| 2026-05-05 15:34 | 53.27400 | -2.92645 | 4054 ft | 265 kts | 114° |
| 2026-05-05 15:35 | 53.26896 | -2.89730 | 5108 ft | 259 kts | 100° |
| 2026-05-05 15:35 | 53.26452 | -2.86803 | 6052 ft | 263 kts | 106° |
| 2026-05-05 15:35 | 53.25777 | -2.83924 | 6826 ft | 269 kts | 115° |
| 2026-05-05 15:35 | 53.24818 | -2.81181 | 7542 ft | 277 kts | 124° |
| 2026-05-05 15:36 | 53.23650 | -2.78589 | 8286 ft | 283 kts | 126° |
| 2026-05-05 15:36 | 53.22439 | -2.75926 | 9027 ft | 290 kts | 127° |
| 2026-05-05 15:36 | 53.21221 | -2.73240 | 9765 ft | 296 kts | 127° |
| 2026-05-05 15:36 | 53.19956 | -2.70444 | 10314 ft | 310 kts | 127° |
| 2026-05-05 15:37 | 53.18609 | -2.67467 | 10553 ft | 333 kts | 127° |
| 2026-05-05 15:37 | 53.17188 | -2.64328 | 11081 ft | 342 kts | 127° |
| 2026-05-05 15:37 | 53.15740 | -2.61127 | 11730 ft | 349 kts | 127° |
| 2026-05-05 15:37 | 53.14250 | -2.57937 | 12540 ft | 350 kts | 132° |
| 2026-05-05 15:38 | 53.12467 | -2.55151 | 13215 ft | 354 kts | 144° |
| 2026-05-05 15:38 | 53.10457 | -2.52768 | 13990 ft | 355 kts | 146° |
| 2026-05-05 15:38 | 53.08429 | -2.50389 | 14649 ft | 358 kts | 146° |
| 2026-05-05 15:38 | 53.06388 | -2.48003 | 15283 ft | 361 kts | 146° |
| 2026-05-05 15:39 | 53.04324 | -2.45589 | 15900 ft | 364 kts | 146° |
| 2026-05-05 15:39 | 53.02245 | -2.43150 | 16530 ft | 367 kts | 146° |
| 2026-05-05 15:39 | 53.00145 | -2.40686 | 17146 ft | 371 kts | 147° |
| 2026-05-05 15:39 | 52.98033 | -2.38203 | 17737 ft | 374 kts | 147° |
| 2026-05-05 15:40 | 52.95895 | -2.35690 | 18376 ft | 377 kts | 147° |
| 2026-05-05 15:40 | 52.93743 | -2.33172 | 18929 ft | 379 kts | 147° |
| 2026-05-05 15:40 | 52.91584 | -2.30651 | 19466 ft | 382 kts | 147° |
| 2026-05-05 15:40 | 52.89345 | -2.28290 | 20031 ft | 381 kts | 156° |
| 2026-05-05 15:41 | 52.86885 | -2.26684 | 20571 ft | 380 kts | 168° |
| 2026-05-05 15:41 | 52.84291 | -2.25944 | 21114 ft | 378 kts | 179° |
| 2026-05-05 15:41 | 52.81677 | -2.26090 | 21669 ft | 377 kts | 191° |
| 2026-05-05 15:41 | 52.79109 | -2.26993 | 22220 ft | 377 kts | 196° |
| 2026-05-05 15:42 | 52.76550 | -2.27991 | 22776 ft | 379 kts | 195° |
| 2026-05-05 15:42 | 52.73983 | -2.28980 | 23307 ft | 381 kts | 195° |
| 2026-05-05 15:42 | 52.71369 | -2.29946 | 23766 ft | 385 kts | 192° |
| 2026-05-05 15:42 | 52.68672 | -2.30271 | 24160 ft | 392 kts | 180° |
| 2026-05-05 15:43 | 52.65958 | -2.29682 | 24556 ft | 398 kts | 168° |
| 2026-05-05 15:43 | 52.63326 | -2.28162 | 24952 ft | 405 kts | 156° |
| 2026-05-05 15:43 | 52.60887 | -2.25782 | 25337 ft | 409 kts | 148° |
| 2026-05-05 15:43 | 52.58516 | -2.23168 | 25732 ft | 412 kts | 148° |
| 2026-05-05 15:44 | 52.56144 | -2.20570 | 26113 ft | 414 kts | 148° |
| 2026-05-05 15:44 | 52.53720 | -2.17922 | 26494 ft | 416 kts | 148° |
| 2026-05-05 15:44 | 52.51309 | -2.15297 | 26864 ft | 418 kts | 148° |
| 2026-05-05 15:44 | 52.48873 | -2.12648 | 27238 ft | 420 kts | 149° |
| 2026-05-05 15:45 | 52.46437 | -2.09999 | 27620 ft | 421 kts | 149° |
| 2026-05-05 15:45 | 52.44018 | -2.07381 | 27983 ft | 423 kts | 149° |
| 2026-05-05 15:45 | 52.41520 | -2.04683 | 28326 ft | 425 kts | 149° |
| 2026-05-05 15:45 | 52.39086 | -2.02052 | 28675 ft | 426 kts | 149° |
| 2026-05-05 15:46 | 52.36608 | -1.99373 | 28948 ft | 427 kts | 149° |
| 2026-05-05 15:46 | 52.34121 | -1.96688 | 29108 ft | 428 kts | 149° |
| 2026-05-05 15:46 | 52.31629 | -1.93999 | 29386 ft | 430 kts | 149° |
| 2026-05-05 15:46 | 52.29122 | -1.91298 | 29736 ft | 431 kts | 149° |
| 2026-05-05 15:47 | 52.26606 | -1.88591 | 30030 ft | 433 kts | 150° |
| 2026-05-05 15:47 | 52.24940 | -1.86801 | 30194 ft | 434 kts | 149° |
| 2026-05-05 15:47 | 52.21555 | -1.83167 | 30523 ft | 437 kts | 149° |
| 2026-05-05 15:47 | 52.18997 | -1.80429 | 30769 ft | 438 kts | 149° |
| 2026-05-05 15:48 | 52.16440 | -1.77695 | 30997 ft | 440 kts | 149° |
| 2026-05-05 15:48 | 52.13879 | -1.74959 | 31236 ft | 441 kts | 149° |
| 2026-05-05 15:48 | 52.11309 | -1.72220 | 31549 ft | 440 kts | 149° |
| 2026-05-05 15:48 | 52.08749 | -1.69493 | 31888 ft | 439 kts | 149° |
| 2026-05-05 15:49 | 52.06190 | -1.66775 | 32211 ft | 438 kts | 149° |
| 2026-05-05 15:49 | 52.03642 | -1.64068 | 32529 ft | 438 kts | 149° |
| 2026-05-05 15:49 | 52.01099 | -1.61360 | 32867 ft | 436 kts | 149° |
| 2026-05-05 15:49 | 51.98565 | -1.58666 | 33229 ft | 434 kts | 149° |
| 2026-05-05 15:50 | 51.96041 | -1.55994 | 33576 ft | 432 kts | 149° |
| 2026-05-05 15:50 | 51.93527 | -1.53340 | 33894 ft | 432 kts | 149° |
| 2026-05-05 15:50 | 51.91056 | -1.50739 | 33967 ft | 425 kts | 149° |
| 2026-05-05 15:51 | 51.86158 | -1.45597 | 33972 ft | 418 kts | 149° |
| 2026-05-05 15:51 | 51.81653 | -1.40884 | 33975 ft | 415 kts | 149° |
| 2026-05-05 15:52 | 51.76701 | -1.36125 | 33977 ft | 412 kts | 158° |
| 2026-05-05 15:52 | 51.71266 | -1.33156 | 33976 ft | 411 kts | 164° |
| 2026-05-05 15:53 | 51.65849 | -1.30407 | 33969 ft | 411 kts | 164° |
| 2026-05-05 15:53 | 51.60405 | -1.27646 | 33968 ft | 411 kts | 164° |
| 2026-05-05 15:54 | 51.54943 | -1.24891 | 33957 ft | 411 kts | 164° |
| 2026-05-05 15:54 | 51.49426 | -1.22480 | 33952 ft | 410 kts | 173° |
| 2026-05-05 15:55 | 51.43745 | -1.22419 | 33952 ft | 409 kts | 184° |
| 2026-05-05 15:55 | 51.38051 | -1.22894 | 33951 ft | 409 kts | 184° |
| 2026-05-05 15:56 | 51.32358 | -1.23342 | 33929 ft | 410 kts | 184° |
| 2026-05-05 15:56 | 51.26643 | -1.23800 | 33925 ft | 411 kts | 184° |
| 2026-05-05 15:57 | 51.20923 | -1.24280 | 33925 ft | 412 kts | 186° |
| 2026-05-05 15:57 | 51.15325 | -1.26193 | 33947 ft | 412 kts | 196° |
| 2026-05-05 15:58 | 51.09815 | -1.28527 | 33931 ft | 412 kts | 195° |
| 2026-05-05 15:58 | 51.04265 | -1.30847 | 33931 ft | 412 kts | 195° |
| 2026-05-05 15:59 | 50.98703 | -1.33175 | 33932 ft | 412 kts | 196° |
| 2026-05-05 15:59 | 50.93324 | -1.36254 | 33932 ft | 411 kts | 207° |
| 2026-05-05 16:00 | 50.88225 | -1.40355 | 33928 ft | 411 kts | 207° |
| 2026-05-05 16:00 | 50.83119 | -1.44429 | 33931 ft | 411 kts | 207° |
| 2026-05-05 16:01 | 50.78004 | -1.48486 | 33936 ft | 411 kts | 207° |
| 2026-05-05 16:01 | 50.72896 | -1.52535 | 33953 ft | 411 kts | 207° |
| 2026-05-05 16:02 | 50.67812 | -1.56558 | 33951 ft | 411 kts | 207° |
| 2026-05-05 16:02 | 50.62686 | -1.60605 | 33958 ft | 414 kts | 207° |
| 2026-05-05 16:03 | 50.57437 | -1.64733 | 33942 ft | 427 kts | 207° |
| 2026-05-05 16:03 | 50.52100 | -1.68928 | 33945 ft | 430 kts | 207° |
| 2026-05-05 16:04 | 50.46725 | -1.73136 | 33942 ft | 431 kts | 207° |
| 2026-05-05 16:04 | 50.41365 | -1.77331 | 33942 ft | 431 kts | 207° |
| 2026-05-05 16:05 | 50.36042 | -1.81487 | 33828 ft | 418 kts | 206° |
| 2026-05-05 16:05 | 50.33460 | -1.83498 | 33467 ft | 410 kts | 206° |
| 2026-05-05 16:05 | 50.30922 | -1.85470 | 33019 ft | 405 kts | 206° |
| 2026-05-05 16:05 | 50.28412 | -1.87411 | 32553 ft | 401 kts | 206° |
| 2026-05-05 16:06 | 50.25919 | -1.89334 | 32083 ft | 397 kts | 206° |
| 2026-05-05 16:06 | 50.23510 | -1.91196 | 31521 ft | 390 kts | 206° |
| 2026-05-05 16:06 | 50.21057 | -1.93096 | 30741 ft | 384 kts | 206° |
| 2026-05-05 16:06 | 50.18678 | -1.94939 | 30022 ft | 378 kts | 205° |
| 2026-05-05 16:07 | 50.16367 | -1.96725 | 29148 ft | 374 kts | 205° |
| 2026-05-05 16:07 | 50.14043 | -1.98516 | 28247 ft | 372 kts | 205° |
| 2026-05-05 16:07 | 50.11733 | -2.00296 | 27403 ft | 369 kts | 205° |
| 2026-05-05 16:07 | 50.09446 | -2.02058 | 26595 ft | 365 kts | 206° |
| 2026-05-05 16:08 | 50.07171 | -2.03805 | 25795 ft | 363 kts | 205° |
| 2026-05-05 16:08 | 50.05649 | -2.04969 | 25250 ft | 361 kts | 206° |
| 2026-05-05 16:08 | 50.03394 | -2.06694 | 24451 ft | 360 kts | 206° |
| 2026-05-05 16:08 | 50.00405 | -2.08985 | 23661 ft | 364 kts | 206° |
| 2026-05-05 16:09 | 49.98101 | -2.10598 | 23167 ft | 363 kts | 198° |
| 2026-05-05 16:09 | 49.95663 | -2.11544 | 22725 ft | 359 kts | 192° |
| 2026-05-05 16:09 | 49.93226 | -2.12366 | 22276 ft | 357 kts | 192° |
| 2026-05-05 16:09 | 49.90807 | -2.13184 | 21836 ft | 356 kts | 192° |
| 2026-05-05 16:10 | 49.89178 | -2.13738 | 21552 ft | 354 kts | 192° |
| 2026-05-05 16:10 | 49.86808 | -2.14549 | 21121 ft | 352 kts | 192° |
| 2026-05-05 16:10 | 49.84395 | -2.15378 | 20727 ft | 350 kts | 192° |
| 2026-05-05 16:10 | 49.82052 | -2.16184 | 20349 ft | 347 kts | 192° |
| 2026-05-05 16:11 | 49.79665 | -2.17000 | 19950 ft | 346 kts | 192° |
| 2026-05-05 16:11 | 49.73144 | -2.20392 | 19435 ft | 320 kts | 218° |
| 2026-05-05 16:12 | 49.71589 | -2.22759 | 19305 ft | 309 kts | 234° |
| 2026-05-05 16:12 | 49.69964 | -2.28634 | 18863 ft | 296 kts | 262° |
| 2026-05-05 16:13 | 49.69015 | -2.37963 | 17948 ft | 289 kts | 269° |
| 2026-05-05 16:13 | 49.69200 | -2.41024 | 17593 ft | 286 kts | 287° |
| 2026-05-05 16:13 | 49.69962 | -2.43827 | 17226 ft | 282 kts | 305° |
| 2026-05-05 16:14 | 49.72806 | -2.47711 | 16560 ft | 272 kts | 339° |
| 2026-05-05 16:14 | 49.76440 | -2.48536 | 15961 ft | 263 kts | 11° |
| 2026-05-05 16:15 | 49.79711 | -2.46310 | 15338 ft | 258 kts | 41° |
| 2026-05-05 16:15 | 49.81721 | -2.41833 | 14764 ft | 255 kts | 71° |
| 2026-05-05 16:16 | 49.81942 | -2.36399 | 14187 ft | 257 kts | 101° |
| 2026-05-05 16:16 | 49.80302 | -2.31532 | 13619 ft | 260 kts | 132° |
| 2026-05-05 16:17 | 49.77374 | -2.28280 | 13013 ft | 262 kts | 148° |
| 2026-05-05 16:17 | 49.75776 | -2.26898 | 12971 ft | 263 kts | 148° |
| 2026-05-05 16:18 | 49.72799 | -2.23680 | 12976 ft | 260 kts | 128° |
| 2026-05-05 16:18 | 49.71823 | -2.21365 | 12975 ft | 256 kts | 112° |
| 2026-05-05 16:18 | 49.71278 | -2.16034 | 12977 ft | 252 kts | 86° |
| 2026-05-05 16:19 | 49.71346 | -2.13319 | 12976 ft | 255 kts | 79° |
| 2026-05-05 16:19 | 49.72004 | -2.10806 | 12975 ft | 255 kts | 51° |
| 2026-05-05 16:19 | 49.75103 | -2.08662 | 12491 ft | 255 kts | 354° |
| 2026-05-05 16:20 | 49.77911 | -2.11722 | 11788 ft | 260 kts | 294° |
| 2026-05-05 16:20 | 49.77671 | -2.17107 | 11085 ft | 264 kts | 236° |
| 2026-05-05 16:21 | 49.74816 | -2.20561 | 10383 ft | 265 kts | 211° |
| 2026-05-05 16:22 | 49.70011 | -2.24915 | 9351 ft | 276 kts | 211° |
| 2026-05-05 16:22 | 49.66654 | -2.27846 | 8519 ft | 277 kts | 211° |
| 2026-05-05 16:23 | 49.63233 | -2.30530 | 7759 ft | 275 kts | 206° |
| 2026-05-05 16:23 | 49.61490 | -2.31745 | 7383 ft | 275 kts | 206° |
| 2026-05-05 16:23 | 49.57988 | -2.34116 | 6601 ft | 275 kts | 202° |
| 2026-05-05 16:24 | 49.56192 | -2.35120 | 6198 ft | 275 kts | 201° |
| 2026-05-05 16:24 | 49.54389 | -2.36094 | 5804 ft | 274 kts | 200° |
| 2026-05-05 16:24 | 49.50853 | -2.38026 | 5270 ft | 261 kts | 200° |
| 2026-05-05 16:25 | 49.49151 | -2.38964 | 4974 ft | 258 kts | 200° |
| 2026-05-05 16:25 | 49.45774 | -2.40841 | 4234 ft | 258 kts | 200° |
| 2026-05-05 16:25 | 49.44088 | -2.41756 | 3906 ft | 256 kts | 194° |
| 2026-05-05 16:26 | 49.40526 | -2.42583 | 3576 ft | 268 kts | 183° |
| 2026-05-05 16:26 | 49.36819 | -2.42900 | 3271 ft | 268 kts | 181° |
| 2026-05-05 16:27 | 49.34955 | -2.43036 | 3116 ft | 267 kts | 180° |
| 2026-05-05 16:27 | 49.33102 | -2.43165 | 2960 ft | 267 kts | 181° |
| 2026-05-05 16:27 | 49.31269 | -2.43275 | 2815 ft | 259 kts | 179° |
| 2026-05-05 16:27 | 49.29498 | -2.43230 | 2646 ft | 251 kts | 176° |
| 2026-05-05 16:28 | 49.27766 | -2.43139 | 2504 ft | 247 kts | 175° |
| 2026-05-05 16:28 | 49.26066 | -2.43050 | 2369 ft | 240 kts | 176° |
| 2026-05-05 16:28 | 49.24419 | -2.42961 | 2277 ft | 234 kts | 175° |
| 2026-05-05 16:28 | 49.22800 | -2.42823 | 2194 ft | 233 kts | 168° |
| 2026-05-05 16:29 | 49.21349 | -2.41867 | 2084 ft | 226 kts | 139° |
| 2026-05-05 16:29 | 49.20240 | -2.40229 | 1997 ft | 218 kts | 120° |
| 2026-05-05 16:29 | 49.19600 | -2.38255 | 2024 ft | 197 kts | 100° |
| 2026-05-05 16:29 | 49.19412 | -2.36270 | 2028 ft | 182 kts | 84° |
| 2026-05-05 16:30 | 49.19544 | -2.34394 | 1987 ft | 172 kts | 78° |
| 2026-05-05 16:30 | 49.19689 | -2.32665 | 1831 ft | 159 kts | 77° |
| 2026-05-05 16:30 | 49.19830 | -2.31006 | 1658 ft | 156 kts | 78° |
| 2026-05-05 16:30 | 49.19966 | -2.29394 | 1450 ft | 148 kts | 77° |
| 2026-05-05 16:31 | 49.20095 | -2.27866 | 1265 ft | 143 kts | 77° |
| 2026-05-05 16:31 | 49.20222 | -2.26376 | 1070 ft | 144 kts | 77° |
| 2026-05-05 16:31 | 49.20352 | -2.24828 | 862 ft | 145 kts | 76° |
| 2026-05-05 16:31 | 49.20479 | -2.23306 | 671 ft | 144 kts | 78° |
| 2026-05-05 16:32 | 49.20607 | -2.21813 | 485 ft | 143 kts | 76° |
| 2026-05-05 16:32 | 49.20735 | -2.20298 | 303 ft | 143 kts | 77° |
| 2026-05-05 16:32 | 49.20839 | -2.19073 | 285 ft | 77 kts | 83° |
| 2026-05-05 16:32 | 49.20886 | -2.18546 | 282 ft | 42 kts | 83° |
| 2026-05-05 16:33 | 49.20833 | -2.18377 | 283 ft | 15 kts | 173° |
| 2026-05-05 16:33 | 49.20755 | -2.18438 | 284 ft | 12 kts | 227° |
| 2026-05-05 16:33 | 49.20728 | -2.18566 | 284 ft | 13 kts | 262° |
| 2026-05-05 16:33 | 49.20716 | -2.18719 | 284 ft | 19 kts | 263° |
| 2026-05-05 16:34 | 49.20696 | -2.18952 | 284 ft | 24 kts | 262° |
| 2026-05-05 16:34 | 49.20681 | -2.19207 | 284 ft | 21 kts | 279° |
| 2026-05-05 16:34 | 49.20708 | -2.19406 | 287 ft | 13 kts | 274° |
| 2026-05-05 16:34 | 49.20703 | -2.19509 | 284 ft | 0 kts | 258° |
| 2026-05-05 16:36 | 49.20701 | -2.19518 | 284 ft | 1 kts | 257° |
| 2026-05-05 16:36 | 49.20699 | -2.19530 | 284 ft | 1 kts | 257° |
| 2026-05-05 16:36 | 49.20694 | -2.19565 | 284 ft | 6 kts | 257° |
| 2026-05-05 16:37 | 49.20682 | -2.19618 | 284 ft | 5 kts | 244° |
| 2026-05-05 16:37 | 49.20670 | -2.19641 | 287 ft | 0 kts | 222° |
| 2026-05-05 16:38 | 49.20656 | -2.19656 | 284 ft | 7 kts | 210° |
| 2026-05-05 16:39 | 49.20580 | -2.19648 | 287 ft | 11 kts | 159° |
| 2026-05-05 16:39 | 49.20562 | -2.19637 | 284 ft | 0 kts | 158° |